sensor_id;sensor_type;location;lat;lon;timestamp;pressure;altitude;pressure_sealevel;temperature
15453;BMP280;7827;53.594;9.938;2023-12-20T00:00:56;35267.97;;;-135.29
15453;BMP280;7827;53.594;9.938;2023-12-20T00:03:25;35353.25;;;-135.29
15453;BMP280;7827;53.594;9.938;2023-12-20T00:05:53;35281.53;;;-135.29
15453;BMP280;7827;53.594;9.938;2023-12-20T00:08:22;35395.91;;;-135.29
15453;BMP280;7827;53.594;9.938;2023-12-20T00:10:52;35308.66;;;-135.29
15453;BMP280;7827;53.594;9.938;2023-12-20T00:13:20;35407.53;;;-135.29
15453;BMP280;7827;53.594;9.938;2023-12-20T00:15:49;35308.66;;;-135.29
15453;BMP280;7827;53.594;9.938;2023-12-20T00:18:17;35269.91;;;-135.29
15453;BMP280;7827;53.594;9.938;2023-12-20T00:20:46;35269.91;;;-135.29
15453;BMP280;7827;53.594;9.938;2023-12-20T00:23:14;35335.81;;;-135.29
15453;BMP280;7827;53.594;9.938;2023-12-20T00:25:43;35525.78;;;-135.29
15453;BMP280;7827;53.594;9.938;2023-12-20T00:28:12;35419.16;;;-135.29
15453;BMP280;7827;53.594;9.938;2023-12-20T00:30:41;35293.16;;;-135.29
15453;BMP280;7827;53.594;9.938;2023-12-20T00:33:10;35452.13;;;-135.29
15453;BMP280;7827;53.594;9.938;2023-12-20T00:35:38;35448.25;;;-135.29
15453;BMP280;7827;53.594;9.938;2023-12-20T00:38:07;35347.44;;;-135.29
15453;BMP280;7827;53.594;9.938;2023-12-20T00:40:36;35430.78;;;-135.29
15453;BMP280;7827;53.594;9.938;2023-12-20T00:43:04;35436.59;;;-135.29
15453;BMP280;7827;53.594;9.938;2023-12-20T00:45:34;35285.41;;;-135.29
15453;BMP280;7827;53.594;9.938;2023-12-20T00:48:03;35300.91;;;-135.29
15453;BMP280;7827;53.594;9.938;2023-12-20T00:50:32;35335.81;;;-135.29
15453;BMP280;7827;53.594;9.938;2023-12-20T00:53:00;35266.03;;;-135.29
15453;BMP280;7827;53.594;9.938;2023-12-20T00:55:29;35386.22;;;-135.29
15453;BMP280;7827;53.594;9.938;2023-12-20T00:57:57;35345.50;;;-135.29
15453;BMP280;7827;53.594;9.938;2023-12-20T01:00:27;35397.84;;;-135.29
15453;BMP280;7827;53.594;9.938;2023-12-20T01:02:57;35424.97;;;-135.29
15453;BMP280;7827;53.594;9.938;2023-12-20T01:05:25;35409.47;;;-135.29
15453;BMP280;7827;53.594;9.938;2023-12-20T01:07:54;35298.97;;;-135.29
15453;BMP280;7827;53.594;9.938;2023-12-20T01:10:22;35395.91;;;-135.29
15453;BMP280;7827;53.594;9.938;2023-12-20T01:12:51;35331.94;;;-135.29
15453;BMP280;7827;53.594;9.938;2023-12-20T01:15:19;35448.25;;;-135.29
15453;BMP280;7827;53.594;9.938;2023-12-20T01:17:48;35440.50;;;-135.29
15453;BMP280;7827;53.594;9.938;2023-12-20T01:20:17;35359.06;;;-135.29
15453;BMP280;7827;53.594;9.938;2023-12-20T01:22:47;35525.78;;;-135.29
15453;BMP280;7827;53.594;9.938;2023-12-20T01:25:15;35475.38;;;-135.29
15453;BMP280;7827;53.594;9.938;2023-12-20T01:27:46;35456.00;;;-135.29
15453;BMP280;7827;53.594;9.938;2023-12-20T01:30:15;35459.88;;;-135.29
15453;BMP280;7827;53.594;9.938;2023-12-20T01:32:43;35500.59;;;-135.29
15453;BMP280;7827;53.594;9.938;2023-12-20T01:35:12;35545.19;;;-135.29
15453;BMP280;7827;53.594;9.938;2023-12-20T01:37:42;35430.78;;;-135.29
15453;BMP280;7827;53.594;9.938;2023-12-20T01:40:10;35549.06;;;-135.29
15453;BMP280;7827;53.594;9.938;2023-12-20T01:42:39;35446.31;;;-135.29
15453;BMP280;7827;53.594;9.938;2023-12-20T01:45:08;35463.75;;;-135.29
15453;BMP280;7827;53.594;9.938;2023-12-20T01:47:37;35333.88;;;-135.29
15453;BMP280;7827;53.594;9.938;2023-12-20T01:50:07;35502.53;;;-135.29
15453;BMP280;7827;53.594;9.938;2023-12-20T01:52:36;35508.34;;;-135.29
15453;BMP280;7827;53.594;9.938;2023-12-20T01:55:08;35424.97;;;-135.29
15453;BMP280;7827;53.594;9.938;2023-12-20T01:57:41;35487.00;;;-135.29
15453;BMP280;7827;53.594;9.938;2023-12-20T02:00:13;35471.50;;;-135.29
15453;BMP280;7827;53.594;9.938;2023-12-20T02:02:44;35475.38;;;-135.29
15453;BMP280;7827;53.594;9.938;2023-12-20T02:05:13;35487.00;;;-135.29
15453;BMP280;7827;53.594;9.938;2023-12-20T02:07:42;35543.22;;;-135.29
15453;BMP280;7827;53.594;9.938;2023-12-20T02:10:13;35510.28;;;-135.29
15453;BMP280;7827;53.594;9.938;2023-12-20T02:12:41;35337.75;;;-135.29
15453;BMP280;7827;53.594;9.938;2023-12-20T02:15:10;35568.44;;;-135.29
15453;BMP280;7827;53.594;9.938;2023-12-20T02:17:39;35556.81;;;-135.29
15453;BMP280;7827;53.594;9.938;2023-12-20T02:20:08;35430.78;;;-135.29
15453;BMP280;7827;53.594;9.938;2023-12-20T02:22:38;35477.31;;;-135.29
15453;BMP280;7827;53.594;9.938;2023-12-20T02:25:07;35516.09;;;-135.29
15453;BMP280;7827;53.594;9.938;2023-12-20T02:27:36;35514.16;;;-135.29
15453;BMP280;7827;53.594;9.938;2023-12-20T02:30:06;35533.53;;;-135.29
15453;BMP280;7827;53.594;9.938;2023-12-20T02:32:35;35570.38;;;-135.29
15453;BMP280;7827;53.594;9.938;2023-12-20T02:35:04;35459.88;;;-135.29
15453;BMP280;7827;53.594;9.938;2023-12-20T02:37:33;35473.44;;;-135.29
15453;BMP280;7827;53.594;9.938;2023-12-20T02:40:04;35494.78;;;-135.29
15453;BMP280;7827;53.594;9.938;2023-12-20T02:42:32;35479.25;;;-135.29
15453;BMP280;7827;53.594;9.938;2023-12-20T02:45:01;35512.22;;;-135.29
15453;BMP280;7827;53.594;9.938;2023-12-20T02:47:30;35599.47;;;-135.29
15453;BMP280;7827;53.594;9.938;2023-12-20T02:49:59;35498.66;;;-135.29
15453;BMP280;7827;53.594;9.938;2023-12-20T02:52:29;35477.31;;;-135.29
15453;BMP280;7827;53.594;9.938;2023-12-20T02:54:57;35471.50;;;-135.29
15453;BMP280;7827;53.594;9.938;2023-12-20T02:57:27;35442.44;;;-135.29
15453;BMP280;7827;53.594;9.938;2023-12-20T02:59:56;35376.50;;;-135.29
15453;BMP280;7827;53.594;9.938;2023-12-20T03:02:24;35510.28;;;-135.29
15453;BMP280;7827;53.594;9.938;2023-12-20T03:04:52;35436.59;;;-135.29
15453;BMP280;7827;53.594;9.938;2023-12-20T03:07:22;35502.53;;;-135.29
15453;BMP280;7827;53.594;9.938;2023-12-20T03:09:50;35409.47;;;-135.29
15453;BMP280;7827;53.594;9.938;2023-12-20T03:12:39;35421.09;;;-135.29
15453;BMP280;7827;53.594;9.938;2023-12-20T03:15:09;35479.25;;;-135.29
15453;BMP280;7827;53.594;9.938;2023-12-20T03:17:37;35384.28;;;-135.29
15453;BMP280;7827;53.594;9.938;2023-12-20T03:20:08;35421.09;;;-135.29
15453;BMP280;7827;53.594;9.938;2023-12-20T03:22:36;35471.50;;;-135.29
15453;BMP280;7827;53.594;9.938;2023-12-20T03:25:05;35463.75;;;-135.29
15453;BMP280;7827;53.594;9.938;2023-12-20T03:27:34;35477.31;;;-135.29
15453;BMP280;7827;53.594;9.938;2023-12-20T03:30:07;35525.78;;;-135.29
15453;BMP280;7827;53.594;9.938;2023-12-20T03:32:38;35351.31;;;-135.29
15453;BMP280;7827;53.594;9.938;2023-12-20T03:35:06;35490.88;;;-135.29
15453;BMP280;7827;53.594;9.938;2023-12-20T03:37:35;35423.03;;;-135.29
15453;BMP280;7827;53.594;9.938;2023-12-20T03:40:04;35456.00;;;-135.29
15453;BMP280;7827;53.594;9.938;2023-12-20T03:42:33;35438.56;;;-135.29
15453;BMP280;7827;53.594;9.938;2023-12-20T03:45:01;35541.28;;;-135.29
15453;BMP280;7827;53.594;9.938;2023-12-20T03:47:31;35533.53;;;-135.29
15453;BMP280;7827;53.594;9.938;2023-12-20T03:50:00;35545.19;;;-135.29
15453;BMP280;7827;53.594;9.938;2023-12-20T03:52:29;35364.88;;;-135.29
15453;BMP280;7827;53.594;9.938;2023-12-20T03:54:58;35471.50;;;-135.29
15453;BMP280;7827;53.594;9.938;2023-12-20T03:57:26;35397.84;;;-135.29
15453;BMP280;7827;53.594;9.938;2023-12-20T03:59:54;35328.06;;;-135.29
15453;BMP280;7827;53.594;9.938;2023-12-20T04:02:23;35492.84;;;-135.29
15453;BMP280;7827;53.594;9.938;2023-12-20T04:04:53;35426.91;;;-135.29
15453;BMP280;7827;53.594;9.938;2023-12-20T04:07:21;35552.94;;;-135.29
15453;BMP280;7827;53.594;9.938;2023-12-20T04:09:50;35405.59;;;-135.29
15453;BMP280;7827;53.594;9.938;2023-12-20T04:12:18;35508.34;;;-135.29
15453;BMP280;7827;53.594;9.938;2023-12-20T04:14:47;35467.63;;;-135.29
15453;BMP280;7827;53.594;9.938;2023-12-20T04:17:16;35585.88;;;-135.29
15453;BMP280;7827;53.594;9.938;2023-12-20T04:19:44;35481.19;;;-135.29
15453;BMP280;7827;53.594;9.938;2023-12-20T04:22:14;35525.78;;;-135.29
15453;BMP280;7827;53.594;9.938;2023-12-20T04:24:42;35442.44;;;-135.29
15453;BMP280;7827;53.594;9.938;2023-12-20T04:27:11;35397.84;;;-135.29
15453;BMP280;7827;53.594;9.938;2023-12-20T04:29:39;35401.72;;;-135.29
15453;BMP280;7827;53.594;9.938;2023-12-20T04:32:08;35564.56;;;-135.29
15453;BMP280;7827;53.594;9.938;2023-12-20T04:34:37;35518.03;;;-135.29
15453;BMP280;7827;53.594;9.938;2023-12-20T04:37:05;35570.38;;;-135.29
15453;BMP280;7827;53.594;9.938;2023-12-20T04:39:35;35566.50;;;-135.29
15453;BMP280;7827;53.594;9.938;2023-12-20T04:42:04;35395.91;;;-135.29
15453;BMP280;7827;53.594;9.938;2023-12-20T04:44:33;35401.72;;;-135.29
15453;BMP280;7827;53.594;9.938;2023-12-20T04:47:01;35570.38;;;-135.29
15453;BMP280;7827;53.594;9.938;2023-12-20T04:49:30;35339.69;;;-135.29
15453;BMP280;7827;53.594;9.938;2023-12-20T04:51:58;35438.56;;;-135.29
15453;BMP280;7827;53.594;9.938;2023-12-20T04:54:27;35424.97;;;-135.29
15453;BMP280;7827;53.594;9.938;2023-12-20T04:56:57;35277.66;;;-135.29
15453;BMP280;7827;53.594;9.938;2023-12-20T04:59:25;35475.38;;;-135.29
15453;BMP280;7827;53.594;9.938;2023-12-20T05:01:54;35343.56;;;-135.29
15453;BMP280;7827;53.594;9.938;2023-12-20T05:04:22;35409.47;;;-135.29
15453;BMP280;7827;53.594;9.938;2023-12-20T05:06:51;35324.19;;;-135.29
15453;BMP280;7827;53.594;9.938;2023-12-20T05:09:20;35405.59;;;-135.29
15453;BMP280;7827;53.594;9.938;2023-12-20T05:11:48;35392.03;;;-135.29
15453;BMP280;7827;53.594;9.938;2023-12-20T05:14:18;35409.47;;;-135.29
15453;BMP280;7827;53.594;9.938;2023-12-20T05:16:46;35300.91;;;-135.29
15453;BMP280;7827;53.594;9.938;2023-12-20T05:19:14;35485.06;;;-135.29
15453;BMP280;7827;53.594;9.938;2023-12-20T05:21:43;35421.09;;;-135.29
15453;BMP280;7827;53.594;9.938;2023-12-20T05:24:12;35508.34;;;-135.29
15453;BMP280;7827;53.594;9.938;2023-12-20T05:26:40;35415.28;;;-135.29
15453;BMP280;7827;53.594;9.938;2023-12-20T05:29:08;35349.38;;;-135.29
15453;BMP280;7827;53.594;9.938;2023-12-20T05:31:38;35366.81;;;-135.29
15453;BMP280;7827;53.594;9.938;2023-12-20T05:34:07;35324.19;;;-135.29
15453;BMP280;7827;53.594;9.938;2023-12-20T05:36:37;35302.84;;;-135.29
15453;BMP280;7827;53.594;9.938;2023-12-20T05:39:06;35421.09;;;-135.29
15453;BMP280;7827;53.594;9.938;2023-12-20T05:41:34;35393.97;;;-135.29
15453;BMP280;7827;53.594;9.938;2023-12-20T05:44:03;35479.25;;;-135.29
15453;BMP280;7827;53.594;9.938;2023-12-20T05:46:32;35409.47;;;-135.29
15453;BMP280;7827;53.594;9.938;2023-12-20T05:49:01;35312.53;;;-135.29
15453;BMP280;7827;53.594;9.938;2023-12-20T05:51:30;35454.06;;;-135.29
15453;BMP280;7827;53.594;9.938;2023-12-20T05:53:59;35386.22;;;-135.29
15453;BMP280;7827;53.594;9.938;2023-12-20T05:56:28;35446.31;;;-135.29
15453;BMP280;7827;53.594;9.938;2023-12-20T05:58:56;35331.94;;;-135.29
15453;BMP280;7827;53.594;9.938;2023-12-20T06:01:25;35368.75;;;-135.29
15453;BMP280;7827;53.594;9.938;2023-12-20T06:03:54;35308.66;;;-135.29
15453;BMP280;7827;53.594;9.938;2023-12-20T06:06:25;35368.75;;;-135.29
15453;BMP280;7827;53.594;9.938;2023-12-20T06:08:53;35483.13;;;-135.29
15453;BMP280;7827;53.594;9.938;2023-12-20T06:11:21;35413.34;;;-135.29
15453;BMP280;7827;53.594;9.938;2023-12-20T06:13:50;35285.41;;;-135.29
15453;BMP280;7827;53.594;9.938;2023-12-20T06:16:19;35421.09;;;-135.29
15453;BMP280;7827;53.594;9.938;2023-12-20T06:18:48;35382.34;;;-135.29
15453;BMP280;7827;53.594;9.938;2023-12-20T06:21:16;35374.56;;;-135.29
15453;BMP280;7827;53.594;9.938;2023-12-20T06:23:46;35328.06;;;-135.29
15453;BMP280;7827;53.594;9.938;2023-12-20T06:26:15;35452.13;;;-135.29
15453;BMP280;7827;53.594;9.938;2023-12-20T06:28:43;35465.69;;;-135.29
15453;BMP280;7827;53.594;9.938;2023-12-20T06:31:11;35448.25;;;-135.29
15453;BMP280;7827;53.594;9.938;2023-12-20T06:33:40;35337.75;;;-135.29
15453;BMP280;7827;53.594;9.938;2023-12-20T06:36:11;35483.13;;;-135.29
15453;BMP280;7827;53.594;9.938;2023-12-20T06:38:41;35343.56;;;-135.29
15453;BMP280;7827;53.594;9.938;2023-12-20T06:41:15;35273.78;;;-135.29
15453;BMP280;7827;53.594;9.938;2023-12-20T06:43:44;35320.28;;;-135.29
15453;BMP280;7827;53.594;9.938;2023-12-20T06:46:17;35364.88;;;-135.29
15453;BMP280;7827;53.594;9.938;2023-12-20T06:48:46;35291.22;;;-135.29
15453;BMP280;7827;53.594;9.938;2023-12-20T06:51:16;35331.94;;;-135.29
15453;BMP280;7827;53.594;9.938;2023-12-20T06:53:44;35335.81;;;-135.29
15453;BMP280;7827;53.594;9.938;2023-12-20T06:56:14;35266.03;;;-135.29
15453;BMP280;7827;53.594;9.938;2023-12-20T06:58:46;35415.28;;;-135.29
15453;BMP280;7827;53.594;9.938;2023-12-20T07:01:15;35304.78;;;-135.29
15453;BMP280;7827;53.594;9.938;2023-12-20T07:03:44;35461.81;;;-135.29
15453;BMP280;7827;53.594;9.938;2023-12-20T07:06:13;35235.00;;;-135.29
15453;BMP280;7827;53.594;9.938;2023-12-20T07:08:44;35312.53;;;-135.29
15453;BMP280;7827;53.594;9.938;2023-12-20T07:11:13;35361.00;;;-135.29
15453;BMP280;7827;53.594;9.938;2023-12-20T07:13:42;35444.38;;;-135.29
15453;BMP280;7827;53.594;9.938;2023-12-20T07:16:10;35324.19;;;-135.29
15453;BMP280;7827;53.594;9.938;2023-12-20T07:18:39;35269.91;;;-135.29
15453;BMP280;7827;53.594;9.938;2023-12-20T07:21:07;35324.19;;;-135.29
15453;BMP280;7827;53.594;9.938;2023-12-20T07:23:36;35361.00;;;-135.29
15453;BMP280;7827;53.594;9.938;2023-12-20T07:26:04;35351.31;;;-135.29
15453;BMP280;7827;53.594;9.938;2023-12-20T07:28:34;35368.75;;;-135.29
15453;BMP280;7827;53.594;9.938;2023-12-20T07:31:03;35415.28;;;-135.29
15453;BMP280;7827;53.594;9.938;2023-12-20T07:33:32;35198.19;;;-135.29
15453;BMP280;7827;53.594;9.938;2023-12-20T07:36:06;35246.63;;;-135.29
15453;BMP280;7827;53.594;9.938;2023-12-20T07:38:36;35328.06;;;-135.29
15453;BMP280;7827;53.594;9.938;2023-12-20T07:41:04;35324.19;;;-135.29
15453;BMP280;7827;53.594;9.938;2023-12-20T07:43:34;35353.25;;;-135.29
15453;BMP280;7827;53.594;9.938;2023-12-20T07:46:06;35250.50;;;-135.29
15453;BMP280;7827;53.594;9.938;2023-12-20T07:48:35;35380.41;;;-135.29
15453;BMP280;7827;53.594;9.938;2023-12-20T07:51:04;35295.09;;;-135.29
15453;BMP280;7827;53.594;9.938;2023-12-20T07:53:34;35273.78;;;-135.29
15453;BMP280;7827;53.594;9.938;2023-12-20T07:56:14;35269.91;;;-135.29
15453;BMP280;7827;53.594;9.938;2023-12-20T07:58:45;35204.00;;;-135.29
15453;BMP280;7827;53.594;9.938;2023-12-20T08:01:20;35227.25;;;-135.29
15453;BMP280;7827;53.594;9.938;2023-12-20T08:03:50;35219.50;;;-135.29
15453;BMP280;7827;53.594;9.938;2023-12-20T08:06:19;35324.19;;;-135.29
15453;BMP280;7827;53.594;9.938;2023-12-20T08:08:48;35266.03;;;-135.29
15453;BMP280;7827;53.594;9.938;2023-12-20T08:11:28;35238.88;;;-135.29
15453;BMP280;7827;53.594;9.938;2023-12-20T08:13:58;35198.19;;;-135.29
15453;BMP280;7827;53.594;9.938;2023-12-20T08:16:26;35209.81;;;-135.29
15453;BMP280;7827;53.594;9.938;2023-12-20T08:18:55;35298.97;;;-135.29
15453;BMP280;7827;53.594;9.938;2023-12-20T08:21:23;35172.97;;;-135.29
15453;BMP280;7827;53.594;9.938;2023-12-20T08:23:52;35176.84;;;-135.29
15453;BMP280;7827;53.594;9.938;2023-12-20T08:26:21;35223.38;;;-135.29
15453;BMP280;7827;53.594;9.938;2023-12-20T08:28:51;35172.97;;;-135.29
15453;BMP280;7827;53.594;9.938;2023-12-20T08:31:21;35169.09;;;-135.29
15453;BMP280;7827;53.594;9.938;2023-12-20T08:33:50;35184.59;;;-135.29
15453;BMP280;7827;53.594;9.938;2023-12-20T08:36:21;35141.97;;;-135.29
15453;BMP280;7827;53.594;9.938;2023-12-20T08:38:51;35219.50;;;-135.29
15453;BMP280;7827;53.594;9.938;2023-12-20T08:41:19;35246.63;;;-135.29
15453;BMP280;7827;53.594;9.938;2023-12-20T08:43:48;35223.38;;;-135.29
15453;BMP280;7827;53.594;9.938;2023-12-20T08:46:17;35155.53;;;-135.29
15453;BMP280;7827;53.594;9.938;2023-12-20T08:48:47;35136.16;;;-135.29
15453;BMP280;7827;53.594;9.938;2023-12-20T08:51:15;35095.44;;;-135.29
15453;BMP280;7827;53.594;9.938;2023-12-20T08:53:44;35014.03;;;-135.29
15453;BMP280;7827;53.594;9.938;2023-12-20T08:56:14;35103.19;;;-135.29
15453;BMP280;7827;53.594;9.938;2023-12-20T08:58:44;35273.78;;;-135.29
15453;BMP280;7827;53.594;9.938;2023-12-20T09:01:12;35202.06;;;-135.29
15453;BMP280;7827;53.594;9.938;2023-12-20T09:03:41;35141.97;;;-135.29
15453;BMP280;7827;53.594;9.938;2023-12-20T09:06:12;35221.44;;;-135.29
15453;BMP280;7827;53.594;9.938;2023-12-20T09:08:40;35207.88;;;-135.29
15453;BMP280;7827;53.594;9.938;2023-12-20T09:11:09;35250.50;;;-135.29
15453;BMP280;7827;53.594;9.938;2023-12-20T09:13:38;35192.34;;;-135.29
15453;BMP280;7827;53.594;9.938;2023-12-20T09:16:06;35386.22;;;-135.29
15453;BMP280;7827;53.594;9.938;2023-12-20T09:18:35;35202.06;;;-135.29
15453;BMP280;7827;53.594;9.938;2023-12-20T09:21:03;35110.94;;;-135.29
15453;BMP280;7827;53.594;9.938;2023-12-20T09:23:34;35444.38;;;-135.29
15453;BMP280;7827;53.594;9.938;2023-12-20T09:26:04;35355.19;;;-135.29
15453;BMP280;7827;53.594;9.938;2023-12-20T09:28:32;35362.94;;;-135.29
15453;BMP280;7827;53.594;9.938;2023-12-20T09:31:04;35355.19;;;-135.29
15453;BMP280;7827;53.594;9.938;2023-12-20T09:33:35;35413.34;;;-135.29
15453;BMP280;7827;53.594;9.938;2023-12-20T09:36:04;35487.00;;;-135.29
15453;BMP280;7827;53.594;9.938;2023-12-20T09:38:34;35423.03;;;-135.29
15453;BMP280;7827;53.594;9.938;2023-12-20T09:41:03;35423.03;;;-135.29
15453;BMP280;7827;53.594;9.938;2023-12-20T09:43:35;35450.19;;;-135.29
15453;BMP280;7827;53.594;9.938;2023-12-20T09:46:06;35362.94;;;-135.29
15453;BMP280;7827;53.594;9.938;2023-12-20T09:48:37;35481.19;;;-135.29
15453;BMP280;7827;53.594;9.938;2023-12-20T09:51:06;35432.72;;;-135.29
15453;BMP280;7827;53.594;9.938;2023-12-20T09:53:38;35374.56;;;-135.29
15453;BMP280;7827;53.594;9.938;2023-12-20T09:56:08;35485.06;;;-135.29
15453;BMP280;7827;53.594;9.938;2023-12-20T09:58:37;35380.41;;;-135.29
15453;BMP280;7827;53.594;9.938;2023-12-20T10:01:07;35539.34;;;-135.29
15453;BMP280;7827;53.594;9.938;2023-12-20T10:03:39;35494.78;;;-135.29
15453;BMP280;7827;53.594;9.938;2023-12-20T10:06:10;35475.38;;;-135.29
15453;BMP280;7827;53.594;9.938;2023-12-20T10:08:40;35343.56;;;-135.29
15453;BMP280;7827;53.594;9.938;2023-12-20T10:11:09;35461.81;;;-135.29
15453;BMP280;7827;53.594;9.938;2023-12-20T10:13:40;35518.03;;;-135.29
15453;BMP280;7827;53.594;9.938;2023-12-20T10:16:09;35326.13;;;-135.29
15453;BMP280;7827;53.594;9.938;2023-12-20T10:18:37;35399.78;;;-135.29
15453;BMP280;7827;53.594;9.938;2023-12-20T10:21:07;35514.16;;;-135.29
15453;BMP280;7827;53.594;9.938;2023-12-20T10:23:37;35295.09;;;-135.29
15453;BMP280;7827;53.594;9.938;2023-12-20T10:26:08;35291.22;;;-135.29
15453;BMP280;7827;53.594;9.938;2023-12-20T10:28:36;35297.03;;;-135.29
15453;BMP280;7827;53.594;9.938;2023-12-20T10:31:05;35304.78;;;-135.29
15453;BMP280;7827;53.594;9.938;2023-12-20T10:33:33;35258.25;;;-135.29
15453;BMP280;7827;53.594;9.938;2023-12-20T10:36:03;35401.72;;;-135.29
15453;BMP280;7827;53.594;9.938;2023-12-20T10:38:32;35366.81;;;-135.29
15453;BMP280;7827;53.594;9.938;2023-12-20T10:41:03;35330.00;;;-135.29
15453;BMP280;7827;53.594;9.938;2023-12-20T10:43:35;35153.59;;;-135.29
15453;BMP280;7827;53.594;9.938;2023-12-20T10:46:06;35246.63;;;-135.29
15453;BMP280;7827;53.594;9.938;2023-12-20T10:48:35;35456.00;;;-135.29
15453;BMP280;7827;53.594;9.938;2023-12-20T10:51:05;35421.09;;;-135.29
15453;BMP280;7827;53.594;9.938;2023-12-20T10:53:36;35359.06;;;-135.29
15453;BMP280;7827;53.594;9.938;2023-12-20T10:56:08;35258.25;;;-135.29
15453;BMP280;7827;53.594;9.938;2023-12-20T10:58:41;35267.97;;;-135.29
15453;BMP280;7827;53.594;9.938;2023-12-20T11:01:13;35316.41;;;-135.29
15453;BMP280;7827;53.594;9.938;2023-12-20T11:03:48;35205.94;;;-135.29
15453;BMP280;7827;53.594;9.938;2023-12-20T11:06:30;35248.56;;;-135.29
15453;BMP280;7827;53.594;9.938;2023-12-20T11:09:13;35436.59;;;-135.29
15453;BMP280;7827;53.594;9.938;2023-12-20T11:12:03;35269.91;;;-135.29
15453;BMP280;7827;53.594;9.938;2023-12-20T11:14:43;35355.19;;;-135.29
15453;BMP280;7827;53.594;9.938;2023-12-20T11:17:14;35454.06;;;-135.29
15453;BMP280;7827;53.594;9.938;2023-12-20T11:20:08;35456.00;;;-135.29
15453;BMP280;7827;53.594;9.938;2023-12-20T11:22:52;35432.72;;;-135.29
15453;BMP280;7827;53.594;9.938;2023-12-20T11:25:20;35572.31;;;-135.29
15453;BMP280;7827;53.594;9.938;2023-12-20T11:28:08;35393.97;;;-135.29
15453;BMP280;7827;53.594;9.938;2023-12-20T11:30:49;35397.84;;;-135.29
15453;BMP280;7827;53.594;9.938;2023-12-20T11:33:23;35529.66;;;-135.29
15453;BMP280;7827;53.594;9.938;2023-12-20T11:35:57;35541.28;;;-135.29
15453;BMP280;7827;53.594;9.938;2023-12-20T11:38:25;35529.66;;;-135.29
15453;BMP280;7827;53.594;9.938;2023-12-20T11:40:54;35552.94;;;-135.29
15453;BMP280;7827;53.594;9.938;2023-12-20T11:43:35;35632.41;;;-135.29
15453;BMP280;7827;53.594;9.938;2023-12-20T11:46:07;35597.53;;;-135.29
15453;BMP280;7827;53.594;9.938;2023-12-20T11:48:38;35516.09;;;-135.29
15453;BMP280;7827;53.594;9.938;2023-12-20T11:51:10;35566.50;;;-135.29
15453;BMP280;7827;53.594;9.938;2023-12-20T11:53:39;35618.84;;;-135.29
15453;BMP280;7827;53.594;9.938;2023-12-20T11:56:08;35576.19;;;-135.29
15453;BMP280;7827;53.594;9.938;2023-12-20T11:58:37;35558.75;;;-135.29
15453;BMP280;7827;53.594;9.938;2023-12-20T12:01:07;35549.06;;;-135.29
15453;BMP280;7827;53.594;9.938;2023-12-20T12:03:36;35483.13;;;-135.29
15453;BMP280;7827;53.594;9.938;2023-12-20T12:06:05;35758.44;;;-135.29
15453;BMP280;7827;53.594;9.938;2023-12-20T12:08:36;35585.88;;;-135.29
15453;BMP280;7827;53.594;9.938;2023-12-20T12:11:05;35483.13;;;-135.29
15453;BMP280;7827;53.594;9.938;2023-12-20T12:13:33;35502.53;;;-135.29
15453;BMP280;7827;53.594;9.938;2023-12-20T12:16:03;35591.69;;;-135.29
15453;BMP280;7827;53.594;9.938;2023-12-20T12:18:33;35500.59;;;-135.29
15453;BMP280;7827;53.594;9.938;2023-12-20T12:21:03;35467.63;;;-135.29
15453;BMP280;7827;53.594;9.938;2023-12-20T12:23:44;35545.19;;;-135.29
15453;BMP280;7827;53.594;9.938;2023-12-20T12:26:12;35399.78;;;-135.29
15453;BMP280;7827;53.594;9.938;2023-12-20T12:28:41;35409.47;;;-135.29
15453;BMP280;7827;53.594;9.938;2023-12-20T12:31:14;35269.91;;;-135.29
15453;BMP280;7827;53.594;9.938;2023-12-20T12:33:46;35308.66;;;-135.29
15453;BMP280;7827;53.594;9.938;2023-12-20T12:36:15;35262.16;;;-135.29
15453;BMP280;7827;53.594;9.938;2023-12-20T12:38:44;35246.63;;;-135.29
15453;BMP280;7827;53.594;9.938;2023-12-20T12:41:13;35184.59;;;-135.29
15453;BMP280;7827;53.594;9.938;2023-12-20T12:43:42;35390.09;;;-135.29
15453;BMP280;7827;53.594;9.938;2023-12-20T12:46:10;35217.56;;;-135.29
15453;BMP280;7827;53.594;9.938;2023-12-20T12:48:39;35291.22;;;-135.29
15453;BMP280;7827;53.594;9.938;2023-12-20T12:51:13;35335.81;;;-135.29
15453;BMP280;7827;53.594;9.938;2023-12-20T12:53:41;35333.88;;;-135.29
15453;BMP280;7827;53.594;9.938;2023-12-20T12:56:12;35238.88;;;-135.29
15453;BMP280;7827;53.594;9.938;2023-12-20T12:58:41;35235.00;;;-135.29
15453;BMP280;7827;53.594;9.938;2023-12-20T13:01:10;35324.19;;;-135.29
15453;BMP280;7827;53.594;9.938;2023-12-20T13:03:38;35273.78;;;-135.29
15453;BMP280;7827;53.594;9.938;2023-12-20T13:06:07;35393.97;;;-135.29
15453;BMP280;7827;53.594;9.938;2023-12-20T13:08:37;35246.63;;;-135.29
15453;BMP280;7827;53.594;9.938;2023-12-20T13:11:06;35213.69;;;-135.29
15453;BMP280;7827;53.594;9.938;2023-12-20T13:13:34;35393.97;;;-135.29
15453;BMP280;7827;53.594;9.938;2023-12-20T13:16:04;35390.09;;;-135.29
15453;BMP280;7827;53.594;9.938;2023-12-20T13:18:33;35312.53;;;-135.29
15453;BMP280;7827;53.594;9.938;2023-12-20T13:21:01;35335.81;;;-135.29
15453;BMP280;7827;53.594;9.938;2023-12-20T13:23:30;35333.88;;;-135.29
15453;BMP280;7827;53.594;9.938;2023-12-20T13:25:59;35293.16;;;-135.29
15453;BMP280;7827;53.594;9.938;2023-12-20T13:28:28;35295.09;;;-135.29
15453;BMP280;7827;53.594;9.938;2023-12-20T13:30:56;35343.56;;;-135.29
15453;BMP280;7827;53.594;9.938;2023-12-20T13:33:25;35304.78;;;-135.29
15453;BMP280;7827;53.594;9.938;2023-12-20T13:35:53;35401.72;;;-135.29
15453;BMP280;7827;53.594;9.938;2023-12-20T13:38:23;35438.56;;;-135.29
15453;BMP280;7827;53.594;9.938;2023-12-20T13:40:51;35293.16;;;-135.29
15453;BMP280;7827;53.594;9.938;2023-12-20T13:43:21;35262.16;;;-135.29
15453;BMP280;7827;53.594;9.938;2023-12-20T13:45:50;35392.03;;;-135.29
15453;BMP280;7827;53.594;9.938;2023-12-20T13:48:18;35266.03;;;-135.29
15453;BMP280;7827;53.594;9.938;2023-12-20T13:50:47;35223.38;;;-135.29
15453;BMP280;7827;53.594;9.938;2023-12-20T13:53:16;35207.88;;;-135.29
15453;BMP280;7827;53.594;9.938;2023-12-20T13:55:46;35235.00;;;-135.29
15453;BMP280;7827;53.594;9.938;2023-12-20T13:58:14;35262.16;;;-135.29
15453;BMP280;7827;53.594;9.938;2023-12-20T14:00:44;35409.47;;;-135.29
15453;BMP280;7827;53.594;9.938;2023-12-20T14:03:13;35345.50;;;-135.29
15453;BMP280;7827;53.594;9.938;2023-12-20T14:05:41;35297.03;;;-135.29
15453;BMP280;7827;53.594;9.938;2023-12-20T14:08:10;35415.28;;;-135.29
15453;BMP280;7827;53.594;9.938;2023-12-20T14:10:38;35219.50;;;-135.29